Time;durP1;ratioP1;P1;durP2;ratioP2;P2;SDS_P1;SDS_P2;PMS_P1;PMS_P2;Temp;Humidity;BMP_temperature;BMP_pressure;BME280_temperature;BME280_humidity;BME280_pressure;Samples;Min_cycle;Max_cycle;Signal;HPM_P1;HPM_P2
2022/01/02 00:01:43;;;;;;;2.33;0.93;;;;;;;-4.09;100.00;99951.72;5174713;27;20047;-60
2022/01/02 00:04:15;;;;;;;1.30;1.20;;;;;;;-4.23;100.00;99945.91;5174206;27;20046;-60
2022/01/02 00:06:47;;;;;;;1.27;1.17;;;;;;;-4.34;100.00;99944.94;5174486;27;20055;-60
2022/01/02 00:09:21;;;;;;;2.50;1.10;;;;;;;-4.34;100.00;99933.44;5174442;27;20084;-60
2022/01/02 00:11:50;;;;;;;1.42;1.30;;;;;;;-4.39;100.00;99939.53;5174505;27;20053;-60
2022/01/02 00:14:20;;;;;;;1.92;1.17;;;;;;;-4.40;100.00;99940.59;5174160;27;20046;-60
2022/01/02 00:16:47;;;;;;;1.52;1.20;;;;;;;-4.47;100.00;99945.31;5174604;27;20046;-60
2022/01/02 00:19:21;;;;;;;2.33;1.17;;;;;;;-4.48;100.00;99937.53;5174370;27;20367;-60
2022/01/02 00:21:48;;;;;;;1.95;1.20;;;;;;;-4.62;100.00;99940.56;5174176;27;20046;-60
2022/01/02 00:24:18;;;;;;;1.77;1.20;;;;;;;-4.61;100.00;99944.03;5173895;27;20050;-60
2022/01/02 00:26:48;;;;;;;1.88;1.27;;;;;;;-4.58;100.00;99944.34;5174010;27;20104;-60
2022/01/02 00:29:14;;;;;;;1.20;1.10;;;;;;;-4.61;100.00;99949.41;5173853;27;20048;-60
2022/01/02 00:31:42;;;;;;;1.83;1.30;;;;;;;-4.64;100.00;99949.88;5173934;27;20050;-60
2022/01/02 00:34:09;;;;;;;1.38;0.80;;;;;;;-4.68;100.00;99954.91;5173985;27;20046;-60
2022/01/02 00:36:36;;;;;;;1.60;1.27;;;;;;;-4.78;100.00;99947.56;5174037;27;20076;-60
2022/01/02 00:39:04;;;;;;;1.25;1.20;;;;;;;-4.78;100.00;99942.19;5173869;27;20484;-61
2022/01/02 00:41:34;;;;;;;1.30;1.15;;;;;;;-4.84;100.00;99943.16;5173890;27;20098;-60
2022/01/02 00:44:06;;;;;;;2.15;1.20;;;;;;;-4.80;100.00;99948.84;5173954;27;20053;-61
2022/01/02 00:46:34;;;;;;;3.38;1.50;;;;;;;-4.78;100.00;99960.91;5173862;27;20084;-60
2022/01/02 00:49:04;;;;;;;1.27;1.17;;;;;;;-4.80;100.00;99968.41;5173726;27;20053;-61
2022/01/02 00:51:42;;;;;;;0.88;0.88;;;;;;;-4.84;100.00;99956.53;5173411;27;20054;-60
2022/01/02 00:54:13;;;;;;;2.60;1.33;;;;;;;-4.84;100.00;99963.75;5173136;27;20102;-61
2022/01/02 00:56:44;;;;;;;2.42;1.20;;;;;;;-4.82;100.00;99959.00;5173753;27;20461;-61
2022/01/02 00:59:22;;;;;;;1.50;1.20;;;;;;;-4.83;100.00;99957.34;5173494;27;20095;-60
2022/01/02 01:01:57;;;;;;;2.13;1.38;;;;;;;-4.83;100.00;99960.84;5173473;27;20046;-61
2022/01/02 01:04:26;;;;;;;1.20;1.10;;;;;;;-4.91;100.00;99971.94;5173634;27;20056;-61
2022/01/02 01:06:54;;;;;;;1.75;1.00;;;;;;;-4.86;100.00;99974.72;5173303;27;20054;-61
2022/01/02 01:09:20;;;;;;;2.53;1.60;;;;;;;-4.90;100.00;99980.78;5173431;27;20046;-61
2022/01/02 01:11:47;;;;;;;1.15;1.00;;;;;;;-4.92;100.00;99982.91;5173235;27;20050;-61
2022/01/02 01:14:14;;;;;;;2.30;1.65;;;;;;;-4.95;100.00;99992.22;5173326;27;20052;-61
2022/01/02 01:16:40;;;;;;;2.47;1.40;;;;;;;-4.97;100.00;99992.44;5173179;27;20507;-61
2022/01/02 01:19:06;;;;;;;2.38;1.42;;;;;;;-4.98;100.00;100001.53;5173066;27;20141;-60
2022/01/02 01:21:33;;;;;;;1.80;1.30;;;;;;;-4.97;100.00;100005.81;5173371;27;20052;-61
2022/01/02 01:24:00;;;;;;;4.80;1.20;;;;;;;-4.96;100.00;100014.66;5173310;27;20046;-60
2022/01/02 01:26:26;;;;;;;3.33;1.70;;;;;;;-5.02;100.00;100011.09;5173504;27;20493;-61
2022/01/02 01:28:52;;;;;;;1.60;1.35;;;;;;;-5.10;100.00;100013.34;5173446;27;20050;-61
2022/01/02 01:31:18;;;;;;;1.55;1.33;;;;;;;-5.09;100.00;100009.63;5173225;27;20054;-61
2022/01/02 01:33:45;;;;;;;3.10;1.40;;;;;;;-5.12;100.00;100021.63;5172824;27;20050;-61
2022/01/02 01:36:11;;;;;;;1.65;1.40;;;;;;;-5.12;100.00;100023.47;5173086;27;20050;-61
2022/01/02 01:38:38;;;;;;;1.63;1.42;;;;;;;-5.08;100.00;100024.63;5172863;27;20088;-60
2022/01/02 01:41:11;;;;;;;1.30;1.20;;;;;;;-5.08;100.00;100035.31;5172844;27;20054;-61
2022/01/02 01:43:40;;;;;;;1.20;1.10;;;;;;;-5.11;100.00;100041.94;5172700;27;20050;-60
2022/01/02 01:46:07;;;;;;;1.40;1.30;;;;;;;-5.08;100.00;100043.34;5172860;27;20046;-61
2022/01/02 01:48:33;;;;;;;2.53;1.60;;;;;;;-5.17;100.00;100052.78;5172654;27;20137;-60
2022/01/02 01:50:59;;;;;;;1.58;1.45;;;;;;;-5.22;100.00;100048.97;5172492;27;20054;-61
2022/01/02 01:53:25;;;;;;;1.40;1.20;;;;;;;-5.25;100.00;100060.13;5172920;27;20046;-61
2022/01/02 01:55:56;;;;;;;6.32;1.60;;;;;;;-5.23;100.00;100055.38;5172278;27;20053;-60
2022/01/02 01:58:23;;;;;;;1.88;1.48;;;;;;;-5.28;100.00;100065.16;5172791;27;20048;-60
2022/01/02 02:00:49;;;;;;;1.58;1.08;;;;;;;-5.29;100.00;100060.88;5172528;27;20050;-60
2022/01/02 02:03:15;;;;;;;1.98;1.23;;;;;;;-5.27;100.00;100066.75;5172392;27;20425;-60
2022/01/02 02:05:42;;;;;;;2.70;1.45;;;;;;;-5.32;100.00;100059.47;5172341;27;20046;-60
2022/01/02 02:08:10;;;;;;;2.42;1.50;;;;;;;-5.36;100.00;100054.84;5172477;27;20046;-61
2022/01/02 02:10:39;;;;;;;1.92;1.45;;;;;;;-5.36;100.00;100060.19;5172112;27;20058;-61
2022/01/02 02:13:07;;;;;;;1.95;1.48;;;;;;;-5.46;100.00;100056.28;5172389;27;20053;-60
2022/01/02 02:15:33;;;;;;;1.88;1.55;;;;;;;-5.44;100.00;100056.03;5171830;27;20421;-60
2022/01/02 02:18:00;;;;;;;2.58;1.30;;;;;;;-5.42;100.00;100053.94;5172423;27;20428;-61
2022/01/02 02:20:29;;;;;;;2.15;1.60;;;;;;;-5.42;100.00;100045.13;5172346;27;20092;-60
2022/01/02 02:22:57;;;;;;;4.00;1.30;;;;;;;-5.47;100.00;100043.94;5172298;27;20046;-60
2022/01/02 02:25:25;;;;;;;1.98;1.40;;;;;;;-5.48;100.00;100039.66;5172455;27;20046;-60
2022/01/02 02:27:52;;;;;;;1.77;1.58;;;;;;;-5.49;100.00;100038.03;5172040;27;20084;-60
2022/01/02 02:30:19;;;;;;;1.58;1.38;;;;;;;-5.51;100.00;100050.81;5172243;27;20141;-60
2022/01/02 02:32:46;;;;;;;2.25;1.52;;;;;;;-5.55;100.00;100044.34;5171987;27;20054;-61
2022/01/02 02:35:13;;;;;;;2.10;1.33;;;;;;;-5.52;100.00;100043.06;5172172;27;20065;-60
2022/01/02 02:37:42;;;;;;;1.33;1.10;;;;;;;-5.53;100.00;100044.09;5172023;27;20179;-60
2022/01/02 02:40:09;;;;;;;1.75;1.50;;;;;;;-5.53;100.00;100055.59;5172308;27;20053;-60
2022/01/02 02:42:44;;;;;;;1.42;1.30;;;;;;;-5.57;100.00;100050.94;5171747;27;20047;-60
2022/01/02 02:50:37;;;;;;;1.50;1.40;;;;;;;-5.62;100.00;100053.53;5171794;27;20050;-60
2022/01/02 02:53:04;;;;;;;2.80;1.75;;;;;;;-5.60;100.00;100044.22;5171726;27;20050;-60
2022/01/02 02:55:32;;;;;;;1.67;1.52;;;;;;;-5.55;100.00;100035.50;5171457;27;20046;-61
2022/01/02 02:58:09;;;;;;;1.95;1.40;;;;;;;-5.54;100.00;100034.44;5171953;27;20512;-60
2022/01/02 03:00:35;;;;;;;2.45;1.60;;;;;;;-5.53;100.00;100034.22;5171945;27;20050;-60
2022/01/02 03:03:02;;;;;;;1.70;1.60;;;;;;;-5.52;100.00;100035.84;5171820;27;20050;-61
2022/01/02 03:05:28;;;;;;;1.67;1.58;;;;;;;-5.56;100.00;100055.28;5171945;27;20046;-60
2022/01/02 03:07:55;;;;;;;2.75;1.73;;;;;;;-5.58;100.00;100057.34;5171682;27;20050;-60
2022/01/02 03:10:23;;;;;;;1.50;1.30;;;;;;;-5.58;100.00;100060.84;5171607;27;20050;-60
2022/01/02 03:12:49;;;;;;;2.75;1.80;;;;;;;-5.53;100.00;100057.44;5171867;27;20057;-60
2022/01/02 03:15:16;;;;;;;2.55;1.90;;;;;;;-5.57;100.00;100040.25;5171981;27;20074;-60
2022/01/02 03:17:43;;;;;;;2.72;1.80;;;;;;;-5.59;100.00;100035.19;5171488;27;20493;-60
2022/01/02 03:20:09;;;;;;;1.65;1.55;;;;;;;-5.58;100.00;100030.63;5171725;27;20508;-60
2022/01/02 03:22:35;;;;;;;2.83;1.67;;;;;;;-5.61;100.00;100029.25;5171704;27;20122;-60
2022/01/02 03:25:02;;;;;;;3.08;1.63;;;;;;;-5.60;100.00;100022.84;5171617;27;20073;-61
2022/01/02 03:27:29;;;;;;;1.73;1.50;;;;;;;-5.57;100.00;100018.91;5173322;27;20535;-60
2022/01/02 03:29:56;;;;;;;3.97;1.60;;;;;;;-5.53;100.00;100020.88;5174839;27;20503;-61
2022/01/02 03:32:22;;;;;;;2.00;1.70;;;;;;;-5.59;100.00;100023.69;5175135;27;20046;-60
2022/01/02 03:34:48;;;;;;;2.20;1.92;;;;;;;-5.55;100.00;100022.97;5174905;27;20505;-60
2022/01/02 03:37:14;;;;;;;3.83;1.98;;;;;;;-5.49;100.00;100005.97;5175160;27;20439;-60
2022/01/02 03:39:41;;;;;;;3.67;1.63;;;;;;;-5.45;100.00;100017.00;5174894;27;20046;-61
2022/01/02 03:42:07;;;;;;;3.03;1.55;;;;;;;-5.49;100.00;100016.66;5175189;27;20046;-60
2022/01/02 03:44:34;;;;;;;4.00;1.98;;;;;;;-5.50;100.00;100011.53;5174635;27;20056;-60
2022/01/02 03:47:01;;;;;;;3.83;1.80;;;;;;;-5.50;100.00;100009.72;5175061;27;20072;-60
2022/01/02 03:49:27;;;;;;;1.90;1.50;;;;;;;-5.43;100.00;100006.91;5174487;27;20057;-60
2022/01/02 03:51:53;;;;;;;4.50;1.60;;;;;;;-5.47;100.00;100005.72;5174658;27;20046;-60
2022/01/02 03:54:19;;;;;;;2.17;1.98;;;;;;;-5.55;100.00;100014.13;5174083;27;20147;-61
2022/01/02 03:56:47;;;;;;;5.60;1.95;;;;;;;-5.55;100.00;100014.94;5174550;27;20050;-60
2022/01/02 03:59:15;;;;;;;3.15;2.33;;;;;;;-5.51;100.00;100013.41;5174754;27;20449;-60
2022/01/02 04:01:42;;;;;;;2.53;1.70;;;;;;;-5.52;100.00;100011.78;5174645;27;20050;-60
2022/01/02 04:04:08;;;;;;;2.33;1.90;;;;;;;-5.60;100.00;100020.16;5174486;27;20128;-61
2022/01/02 04:06:34;;;;;;;4.10;1.73;;;;;;;-5.59;100.00;100019.16;5174779;27;20086;-60
2022/01/02 04:09:01;;;;;;;2.35;1.90;;;;;;;-5.54;100.00;100021.09;5174291;27;20046;-61
2022/01/02 04:11:27;;;;;;;4.55;2.40;;;;;;;-5.67;100.00;100016.84;5174063;27;20054;-60
2022/01/02 04:13:53;;;;;;;2.35;1.85;;;;;;;-5.74;100.00;100018.84;5174644;27;20084;-60
2022/01/02 04:16:19;;;;;;;2.65;1.88;;;;;;;-5.75;100.00;100011.88;5174212;27;20050;-60
2022/01/02 04:18:46;;;;;;;2.92;1.92;;;;;;;-5.74;100.00;100013.50;5174358;27;20114;-61
2022/01/02 04:21:13;;;;;;;2.28;1.60;;;;;;;-5.76;100.00;100000.38;5174205;27;20089;-60
2022/01/02 04:23:39;;;;;;;3.00;1.92;;;;;;;-5.76;100.00;99994.25;5174025;27;20102;-61
2022/01/02 04:26:06;;;;;;;3.67;2.00;;;;;;;-5.76;100.00;99988.91;5174042;27;20493;-61
2022/01/02 04:28:33;;;;;;;2.53;1.90;;;;;;;-5.79;100.00;99987.50;5173951;27;20504;-61
2022/01/02 04:30:59;;;;;;;2.08;1.90;;;;;;;-5.79;100.00;99989.38;5173956;27;20067;-61
2022/01/02 04:33:25;;;;;;;3.15;1.75;;;;;;;-5.85;100.00;99985.78;5173907;27;20046;-60
2022/01/02 04:35:52;;;;;;;5.75;1.88;;;;;;;-5.85;100.00;99993.78;5173941;27;20084;-61
2022/01/02 04:38:20;;;;;;;2.17;1.80;;;;;;;-5.85;100.00;99983.09;5173247;27;20057;-60
2022/01/02 04:40:48;;;;;;;2.00;1.80;;;;;;;-5.86;100.00;99978.81;5174222;27;20447;-60
2022/01/02 04:43:14;;;;;;;2.72;2.33;;;;;;;-5.82;100.00;99977.28;5173668;27;20057;-60
2022/01/02 04:45:41;;;;;;;4.32;2.05;;;;;;;-5.85;100.00;99967.09;5173744;27;20042;-60
2022/01/02 04:48:07;;;;;;;2.80;2.03;;;;;;;-5.80;100.00;99958.34;5173842;27;20054;-61
2022/01/02 04:50:33;;;;;;;2.88;2.10;;;;;;;-5.78;100.00;99957.06;5173540;27;20149;-60
2022/01/02 04:53:00;;;;;;;3.47;2.28;;;;;;;-5.75;100.00;99953.94;5173799;27;20046;-61
2022/01/02 04:55:27;;;;;;;3.20;2.10;;;;;;;-5.75;100.00;99943.25;5173204;27;20504;-61
2022/01/02 04:57:53;;;;;;;3.92;2.08;;;;;;;-5.78;100.00;99948.25;5173766;27;20102;-60
2022/01/02 05:00:19;;;;;;;3.05;2.20;;;;;;;-5.80;100.00;99945.81;5173620;27;20054;-61
2022/01/02 05:02:45;;;;;;;2.42;1.90;;;;;;;-5.82;100.00;99934.56;5173526;27;20067;-61
2022/01/02 05:05:12;;;;;;;3.90;2.47;;;;;;;-5.80;100.00;99939.66;5173392;27;20050;-61
2022/01/02 05:07:38;;;;;;;2.35;1.90;;;;;;;-5.81;100.00;99928.16;5174087;27;20064;-60
2022/01/02 05:10:05;;;;;;;2.90;2.10;;;;;;;-5.81;100.00;99922.03;5173406;27;20390;-60
2022/01/02 05:12:32;;;;;;;4.32;2.15;;;;;;;-5.79;100.00;99917.25;5173810;27;20050;-61
2022/01/02 05:14:58;;;;;;;3.60;2.17;;;;;;;-5.77;100.00;99923.16;5173337;27;20088;-60
2022/01/02 05:17:24;;;;;;;5.05;2.72;;;;;;;-5.77;100.00;99926.63;5173516;27;20134;-60
2022/01/02 05:19:50;;;;;;;3.22;2.33;;;;;;;-5.77;100.00;99921.28;5173300;27;20046;-61
2022/01/02 05:22:16;;;;;;;3.28;2.25;;;;;;;-5.78;100.00;99919.69;5173149;27;20501;-61
2022/01/02 05:24:43;;;;;;;4.80;2.38;;;;;;;-5.76;100.00;99922.94;5173134;27;20066;-61
2022/01/02 05:27:10;;;;;;;3.55;2.38;;;;;;;-5.82;100.00;99907.06;5173060;27;20046;-61
2022/01/02 05:29:36;;;;;;;5.05;2.10;;;;;;;-5.87;100.00;99904.28;5173004;27;20084;-60
2022/01/02 05:32:02;;;;;;;2.67;2.33;;;;;;;-5.85;100.00;99894.19;5172926;27;20046;-61
2022/01/02 05:34:29;;;;;;;4.90;2.38;;;;;;;-5.85;100.00;99889.66;5173422;27;20412;-61
2022/01/02 05:36:55;;;;;;;7.05;2.33;;;;;;;-5.87;100.00;99886.38;5172697;27;20183;-61
2022/01/02 05:39:23;;;;;;;4.68;2.17;;;;;;;-5.91;100.00;99882.59;5173166;27;20046;-61
2022/01/02 05:41:50;;;;;;;3.30;2.28;;;;;;;-5.91;100.00;99878.06;5172808;27;20523;-60
2022/01/02 05:44:18;;;;;;;3.90;2.47;;;;;;;-5.93;100.00;99869.53;5172792;27;20060;-60
2022/01/02 05:46:44;;;;;;;2.85;1.98;;;;;;;-5.98;100.00;99863.25;5172765;27;20058;-61
2022/01/02 05:49:11;;;;;;;3.72;2.35;;;;;;;-6.10;100.00;99865.16;5171891;27;20053;-60
2022/01/02 05:51:38;;;;;;;3.33;2.50;;;;;;;-6.12;100.00;99873.41;5172590;27;20050;-60
2022/01/02 05:54:05;;;;;;;3.10;2.38;;;;;;;-6.07;100.00;99886.03;5172669;27;20061;-61
2022/01/02 05:56:31;;;;;;;4.90;2.70;;;;;;;-6.11;100.00;99874.22;5172115;27;20050;-61
2022/01/02 05:58:57;;;;;;;5.63;3.00;;;;;;;-6.17;100.00;99871.44;5172506;27;20145;-60
2022/01/02 06:01:25;;;;;;;7.13;2.53;;;;;;;-6.19;100.00;99854.06;5172513;27;20058;-60
2022/01/02 06:03:51;;;;;;;3.65;2.75;;;;;;;-6.15;100.00;99865.88;5172512;27;20077;-61
2022/01/02 06:06:17;;;;;;;5.60;2.35;;;;;;;-6.15;100.00;99884.56;5172336;27;20053;-60
2022/01/02 06:08:44;;;;;;;6.57;2.80;;;;;;;-6.21;100.00;99880.19;5172360;27;20516;-61
2022/01/02 06:11:11;;;;;;;4.40;2.40;;;;;;;-6.24;100.00;99875.31;5172406;27;20042;-61
2022/01/02 06:13:37;;;;;;;3.80;2.55;;;;;;;-6.24;100.00;99862.78;5172397;27;20107;-61
2022/01/02 06:16:04;;;;;;;4.20;2.70;;;;;;;-6.20;100.00;99847.09;5172320;27;20050;-60
2022/01/02 06:18:31;;;;;;;4.15;2.42;;;;;;;-6.17;100.00;99844.75;5172363;27;20050;-60
2022/01/02 06:20:57;;;;;;;5.05;2.70;;;;;;;-6.17;100.00;99835.94;5172335;27;20699;-61
2022/01/02 06:23:23;;;;;;;4.53;2.83;;;;;;;-6.16;100.00;99846.41;5172320;27;20050;-61
2022/01/02 06:25:49;;;;;;;5.38;3.05;;;;;;;-6.16;100.00;99835.72;5172086;27;20474;-61
2022/01/02 06:28:16;;;;;;;3.20;2.50;;;;;;;-6.14;100.00;99826.66;5172173;27;20058;-61
2022/01/02 06:30:42;;;;;;;5.60;2.78;;;;;;;-6.14;100.00;99829.31;5172105;27;20141;-60
2022/01/02 06:33:08;;;;;;;5.47;3.03;;;;;;;-6.11;100.00;99827.00;5172259;27;20042;-61
2022/01/02 06:35:36;;;;;;;5.68;3.17;;;;;;;-6.10;100.00;99819.78;5171962;27;20150;-61
2022/01/02 06:38:11;;;;;;;4.05;2.45;;;;;;;-6.06;100.00;99818.28;5172313;27;20103;-60
2022/01/02 06:40:37;;;;;;;4.90;3.35;;;;;;;-5.96;100.00;99818.47;5172195;27;20050;-61
2022/01/02 06:43:04;;;;;;;3.28;2.28;;;;;;;-5.98;100.00;99817.88;5171907;27;20066;-61
2022/01/02 06:45:30;;;;;;;3.13;2.30;;;;;;;-5.90;100.00;99817.44;5172001;27;20052;-61
2022/01/02 06:47:56;;;;;;;3.85;2.70;;;;;;;-5.84;100.00;99819.16;5171967;27;20489;-61
2022/01/02 06:50:22;;;;;;;4.13;2.47;;;;;;;-5.68;100.00;99806.88;5172028;27;20081;-60
2022/01/02 06:52:49;;;;;;;4.35;2.72;;;;;;;-5.49;100.00;99804.78;5171840;27;20402;-60
2022/01/02 06:55:16;;;;;;;4.43;2.65;;;;;;;-5.29;100.00;99805.09;5171273;27;20063;-61
2022/01/02 06:57:42;;;;;;;5.13;2.72;;;;;;;-5.13;100.00;99792.75;5171790;27;20504;-60
2022/01/02 07:00:09;;;;;;;3.60;2.35;;;;;;;-4.96;100.00;99798.06;5172207;27;20429;-60
2022/01/02 07:02:35;;;;;;;2.75;2.30;;;;;;;-4.81;100.00;99811.63;5175251;27;20096;-61
2022/01/02 07:05:01;;;;;;;3.47;2.38;;;;;;;-4.60;100.00;99823.41;5175531;27;20046;-61
2022/01/02 07:07:28;;;;;;;3.10;2.72;;;;;;;-4.48;100.00;99833.97;5175524;27;20050;-61
2022/01/02 07:09:55;;;;;;;6.43;3.42;;;;;;;-4.41;100.00;99833.78;5175382;27;20194;-61
2022/01/02 07:12:23;;;;;;;3.15;2.30;;;;;;;-4.34;100.00;99834.41;5175380;27;20643;-61
2022/01/02 07:14:49;;;;;;;3.78;2.78;;;;;;;-4.22;100.00;99861.03;5175227;27;20133;-61
2022/01/02 07:17:16;;;;;;;3.83;2.08;;;;;;;-4.13;100.00;99886.28;5175422;27;20043;-61
2022/01/02 07:19:42;;;;;;;2.60;2.10;;;;;;;-4.18;100.00;99910.34;5175310;27;20046;-61
2022/01/02 07:22:08;;;;;;;5.43;3.00;;;;;;;-4.24;100.00;99940.78;5175178;27;20046;-61
2022/01/02 07:24:35;;;;;;;3.15;2.40;;;;;;;-4.22;100.00;99946.72;5175397;27;20449;-61
2022/01/02 07:27:02;;;;;;;3.20;2.35;;;;;;;-4.24;100.00;99951.50;5175533;27;20099;-60
2022/01/02 07:29:28;;;;;;;3.55;2.70;;;;;;;-4.30;100.00;99946.09;5174917;27;20050;-60
2022/01/02 07:31:54;;;;;;;4.43;2.55;;;;;;;-4.19;100.00;99947.03;5175224;27;20058;-61
2022/01/02 07:34:21;;;;;;;4.72;2.92;;;;;;;-4.10;100.00;99958.94;5174753;27;20419;-61
2022/01/02 07:36:47;;;;;;;3.45;2.42;;;;;;;-4.09;100.00;99970.47;5174858;27;20082;-61
2022/01/02 07:39:14;;;;;;;5.80;2.80;;;;;;;-4.07;100.00;99957.59;5174953;27;20140;-61
2022/01/02 07:41:41;;;;;;;3.92;2.70;;;;;;;-4.07;100.00;99966.44;5174788;27;20061;-60
2022/01/02 07:44:08;;;;;;;8.07;2.88;;;;;;;-3.97;100.00;99976.47;5174820;27;20412;-61
2022/01/02 07:46:34;;;;;;;4.30;2.70;;;;;;;-3.85;100.00;99971.81;5174560;27;20180;-61
2022/01/02 07:49:01;;;;;;;4.78;2.70;;;;;;;-3.76;100.00;99971.38;5174909;27;20050;-61
2022/01/02 07:51:27;;;;;;;9.82;3.53;;;;;;;-3.66;100.00;99961.59;5174707;27;20624;-61
2022/01/02 07:53:54;;;;;;;5.13;2.95;;;;;;;-3.70;100.00;99956.97;5175159;27;20137;-61
2022/01/02 07:56:20;;;;;;;5.13;3.13;;;;;;;-3.70;100.00;99944.38;5174290;27;20568;-61
2022/01/02 07:58:46;;;;;;;7.10;2.75;;;;;;;-3.62;100.00;99941.25;5175154;27;20153;-61
2022/01/02 08:01:13;;;;;;;6.15;2.97;;;;;;;-3.57;100.00;99930.56;5174532;27;20509;-61
2022/01/02 08:03:39;;;;;;;6.88;2.85;;;;;;;-3.54;100.00;99907.81;5174902;27;20141;-61
2022/01/02 08:06:06;;;;;;;6.18;3.22;;;;;;;-3.54;100.00;99905.16;5174586;27;20046;-61
2022/01/02 08:08:32;;;;;;;6.20;3.00;;;;;;;-3.46;100.00;99895.84;5174312;27;20053;-61
2022/01/02 08:10:58;;;;;;;3.97;2.53;;;;;;;-3.41;100.00;99882.47;5174244;27;20137;-62
2022/01/02 08:13:25;;;;;;;3.83;2.85;;;;;;;-3.41;100.00;99875.25;5173632;27;20402;-61
2022/01/02 08:15:51;;;;;;;5.47;3.10;;;;;;;-3.41;100.00;99858.34;5174489;27;20462;-61
2022/01/02 08:18:18;;;;;;;6.25;3.30;;;;;;;-3.41;100.00;99818.13;5174061;27;20555;-61
2022/01/02 08:20:45;;;;;;;7.90;3.63;;;;;;;-3.37;100.00;99787.88;5174334;27;20406;-61
2022/01/02 08:23:12;;;;;;;5.55;3.42;;;;;;;-3.32;100.00;99750.38;5174094;27;20072;-61
2022/01/02 08:25:38;;;;;;;6.25;3.20;;;;;;;-3.24;100.00;99718.78;5174273;27;20085;-61
2022/01/02 08:28:05;;;;;;;9.10;3.25;;;;;;;-3.23;100.00;99697.06;5173993;27;20046;-61
2022/01/02 08:30:31;;;;;;;6.22;3.35;;;;;;;-3.20;100.00;99696.56;5174253;27;20552;-61
2022/01/02 08:32:57;;;;;;;5.32;3.30;;;;;;;-3.20;100.00;99674.28;5174123;27;20071;-61
2022/01/02 08:35:25;;;;;;;6.35;3.88;;;;;;;-3.21;100.00;99649.34;5173891;27;20042;-61
2022/01/02 08:37:51;;;;;;;5.60;4.18;;;;;;;-3.15;100.00;99637.56;5173900;27;20046;-61
2022/01/02 08:40:17;;;;;;;7.05;4.20;;;;;;;-3.09;100.00;99654.50;5173655;27;20056;-61
2022/01/02 08:42:44;;;;;;;11.32;4.00;;;;;;;-3.07;100.00;99668.44;5174171;27;20061;-61
2022/01/02 08:45:10;;;;;;;7.28;4.03;;;;;;;-3.08;100.00;99656.09;5173952;27;20057;-61
2022/01/02 08:47:36;;;;;;;7.55;3.65;;;;;;;-3.01;100.00;99626.34;5173904;27;20061;-61
2022/01/02 08:50:04;;;;;;;7.15;3.60;;;;;;;-3.04;100.00;99592.81;5173575;27;20050;-61
2022/01/02 08:52:31;;;;;;;6.22;3.20;;;;;;;-3.00;100.00;99544.78;5173972;27;20532;-61
2022/01/02 08:54:57;;;;;;;8.48;3.65;;;;;;;-2.91;100.00;99543.19;5173037;27;20050;-61
2022/01/02 08:57:23;;;;;;;6.55;3.55;;;;;;;-2.91;100.00;99525.22;5173630;27;20129;-61
2022/01/02 08:59:49;;;;;;;10.52;4.45;;;;;;;-2.94;100.00;99469.41;5173461;27;20098;-62
2022/01/02 09:02:16;;;;;;;8.95;3.58;;;;;;;-3.02;100.00;99421.69;5173588;27;20050;-61
2022/01/02 09:04:42;;;;;;;7.75;3.30;;;;;;;-2.94;100.00;99393.50;5173427;27;20053;-61
2022/01/02 09:07:08;;;;;;;7.97;3.83;;;;;;;-3.03;100.00;99328.06;5173402;27;20048;-61
2022/01/02 09:09:35;;;;;;;9.63;3.58;;;;;;;-3.08;100.00;99238.50;5173493;27;20411;-61
2022/01/02 09:12:02;;;;;;;7.05;3.80;;;;;;;-3.04;100.00;99168.22;5173333;27;20054;-61
2022/01/02 09:14:28;;;;;;;6.78;3.30;;;;;;;-3.14;100.00;99096.66;5173345;27;20049;-61
2022/01/02 09:16:54;;;;;;;6.40;3.55;;;;;;;-3.14;100.00;99070.63;5173098;27;20398;-61
2022/01/02 09:19:20;;;;;;;7.95;3.78;;;;;;;-3.00;100.00;99086.94;5173621;27;20042;-61
2022/01/02 09:21:47;;;;;;;8.57;3.10;;;;;;;-3.03;100.00;99041.06;5173090;27;20057;-61
2022/01/02 09:24:13;;;;;;;7.13;3.78;;;;;;;-2.96;100.00;98974.53;5172250;27;20057;-61
2022/01/02 09:26:40;;;;;;;5.75;3.33;;;;;;;-2.95;100.00;98952.00;5173049;27;20046;-61
2022/01/02 09:29:06;;;;;;;5.72;3.50;;;;;;;-2.91;100.00;98884.06;5173377;27;20469;-61
2022/01/02 09:31:33;;;;;;;4.95;3.22;;;;;;;-3.03;100.00;98842.63;5173262;27;20050;-61
2022/01/02 09:34:00;;;;;;;6.05;3.28;;;;;;;-3.19;100.00;98807.94;5173140;27;20046;-60
2022/01/02 09:36:26;;;;;;;5.57;2.80;;;;;;;-3.24;100.00;98759.69;5173278;27;20046;-61
2022/01/02 09:38:54;;;;;;;6.43;3.25;;;;;;;-3.04;100.00;98763.25;5173065;27;20092;-61
2022/01/02 09:41:21;;;;;;;6.18;3.25;;;;;;;-3.08;100.00;98784.47;5173324;27;20768;-61
2022/01/02 09:43:48;;;;;;;6.45;3.60;;;;;;;-3.13;100.00;98811.38;5173136;27;20563;-61
2022/01/02 09:46:18;;;;;;;8.55;4.10;;;;;;;-2.99;100.00;98839.09;5173033;27;20052;-61
2022/01/02 09:48:45;;;;;;;6.88;4.10;;;;;;;-2.94;100.00;98851.66;5172758;27;20047;-61
2022/01/02 09:51:11;;;;;;;8.48;4.47;;;;;;;-2.91;100.00;98856.44;5173036;27;20089;-61
2022/01/02 09:53:38;;;;;;;7.57;4.35;;;;;;;-2.85;100.00;98852.63;5172696;27;20053;-61
2022/01/02 09:56:05;;;;;;;6.35;3.15;;;;;;;-2.89;100.00;98825.59;5172078;27;20057;-61
2022/01/02 09:58:33;;;;;;;6.93;3.60;;;;;;;-2.82;100.00;98819.09;5172588;27;20497;-61
2022/01/02 10:01:00;;;;;;;9.43;4.47;;;;;;;-2.70;100.00;98848.97;5172534;27;20046;-61
2022/01/02 10:03:40;;;;;;;7.75;3.53;;;;;;;-2.62;100.00;98837.63;5172642;27;20052;-61
2022/01/02 10:06:06;;;;;;;6.70;3.53;;;;;;;-2.66;100.00;98772.22;5172560;27;20102;-61
2022/01/02 10:08:34;;;;;;;6.10;3.25;;;;;;;-2.82;100.00;98687.63;5172684;27;20099;-61
2022/01/02 10:11:03;;;;;;;4.78;3.05;;;;;;;-2.82;100.00;98637.47;5172194;27;20090;-61
2022/01/02 10:13:43;;;;;;;6.80;3.20;;;;;;;-2.90;100.00;98598.69;5172413;27;20042;-61
2022/01/02 10:16:31;;;;;;;7.07;3.40;;;;;;;-2.82;100.00;98594.53;5172163;27;20496;-61
2022/01/02 10:18:59;;;;;;;7.65;3.88;;;;;;;-2.62;100.00;98610.31;5172266;27;20061;-61
2022/01/02 10:21:34;;;;;;;6.50;3.83;;;;;;;-2.63;100.00;98581.13;5172263;27;20054;-61
2022/01/02 10:24:16;;;;;;;6.32;3.92;;;;;;;-2.72;100.00;98558.72;5172220;27;20042;-61
2022/01/02 10:27:07;;;;;;;7.03;4.15;;;;;;;-2.67;100.00;98561.31;5172393;27;20132;-61
2022/01/02 10:29:50;;;;;;;7.68;3.63;;;;;;;-2.61;100.00;98563.59;5172194;27;20053;-60
2022/01/02 10:32:31;;;;;;;7.82;4.35;;;;;;;-2.56;100.00;98562.75;5171869;27;20093;-61
2022/01/02 10:35:10;;;;;;;8.75;4.10;;;;;;;-2.55;100.00;98553.59;5172067;27;20046;-61
2022/01/02 10:37:37;;;;;;;8.27;4.13;;;;;;;-2.34;100.00;98566.69;5175801;27;20378;-61
2022/01/02 10:40:04;;;;;;;9.90;4.15;;;;;;;-2.41;100.00;98527.59;5175848;27;20046;-61
2022/01/02 10:42:40;;;;;;;8.15;3.42;;;;;;;-2.46;100.00;98498.16;5175636;27;20054;-61
2022/01/02 10:45:08;;;;;;;6.93;4.03;;;;;;;-2.56;100.00;98455.41;5175583;27;20050;-61
2022/01/02 10:47:35;;;;;;;5.93;3.53;;;;;;;-2.55;100.00;98427.47;5175667;27;20054;-61
2022/01/02 10:50:04;;;;;;;8.70;3.47;;;;;;;-2.38;100.00;98421.50;5175763;27;20050;-61
2022/01/02 10:52:32;;;;;;;6.38;4.03;;;;;;;-2.35;100.00;98404.81;5175773;27;20053;-61
2022/01/02 10:55:01;;;;;;;4.03;2.95;;;;;;;-2.49;100.00;98380.66;5174975;27;20626;-61
2022/01/02 10:57:27;;;;;;;7.68;2.70;;;;;;;-2.32;100.00;98380.06;5175489;27;20131;-61
2022/01/02 10:59:56;;;;;;;4.53;2.38;;;;;;;-2.44;100.00;98363.66;5175325;27;20054;-61
2022/01/02 11:02:24;;;;;;;5.13;2.88;;;;;;;-2.46;100.00;98353.22;5175482;27;20050;-61
2022/01/02 11:04:57;;;;;;;4.68;2.45;;;;;;;-2.43;100.00;98336.53;5175387;27;20073;-61
2022/01/02 11:07:26;;;;;;;4.88;2.25;;;;;;;-2.36;100.00;98336.13;5175454;27;20081;-61
2022/01/02 11:09:55;;;;;;;3.15;2.25;;;;;;;-2.34;100.00;98327.75;5175541;27;20042;-61
2022/01/02 11:12:22;;;;;;;3.38;1.92;;;;;;;-2.53;100.00;98325.19;5175547;27;20094;-61
2022/01/02 11:14:49;;;;;;;5.15;2.65;;;;;;;-2.55;100.00;98330.84;5175240;27;20505;-61
2022/01/02 11:17:17;;;;;;;5.93;3.25;;;;;;;-2.47;100.00;98319.41;5175254;27;20050;-61
2022/01/02 11:19:44;;;;;;;4.07;2.30;;;;;;;-2.57;100.00;98319.63;5175312;27;20077;-61
2022/01/02 11:22:14;;;;;;;5.13;2.70;;;;;;;-2.44;100.00;98313.44;5175138;27;20087;-61
2022/01/02 11:24:50;;;;;;;5.63;2.50;;;;;;;-2.50;100.00;98303.94;5175282;27;20047;-61
2022/01/02 11:27:23;;;;;;;12.15;3.53;;;;;;;-2.55;100.00;98313.97;5175044;27;20138;-61
2022/01/02 11:29:50;;;;;;;13.15;4.68;;;;;;;-2.46;100.00;98307.59;5175617;27;20197;-61